sensor_id;sensor_type;location;lat;lon;timestamp;P1;durP1;ratioP1;P2;durP2;ratioP2
80910;SDS011;70359;51.420;7.032;2024-01-25T00:01:26;7.4;;;3.2;;
80910;SDS011;70359;51.420;7.032;2024-01-25T00:03:51;7.4;;;3.2;;
80910;SDS011;70359;51.420;7.032;2024-01-25T00:06:16;6.7;;;3.3;;
80910;SDS011;70359;51.420;7.032;2024-01-25T00:08:41;6.7;;;3.3;;
80910;SDS011;70359;51.420;7.032;2024-01-25T00:11:06;14.2;;;3.3;;
80910;SDS011;70359;51.420;7.032;2024-01-25T00:13:31;14.2;;;3.3;;
80910;SDS011;70359;51.420;7.032;2024-01-25T00:15:56;5.7;;;3.3;;
80910;SDS011;70359;51.420;7.032;2024-01-25T00:18:21;5.7;;;3.3;;
80910;SDS011;70359;51.420;7.032;2024-01-25T00:20:46;5.3;;;3.2;;
80910;SDS011;70359;51.420;7.032;2024-01-25T00:23:11;5.3;;;3.2;;
80910;SDS011;70359;51.420;7.032;2024-01-25T00:25:36;7.4;;;3.6;;
80910;SDS011;70359;51.420;7.032;2024-01-25T00:28:01;7.4;;;3.6;;
80910;SDS011;70359;51.420;7.032;2024-01-25T00:30:26;16.5;;;3.9;;
80910;SDS011;70359;51.420;7.032;2024-01-25T00:32:51;16.5;;;3.9;;
80910;SDS011;70359;51.420;7.032;2024-01-25T00:35:17;6.3;;;3.3;;
80910;SDS011;70359;51.420;7.032;2024-01-25T00:37:42;6.3;;;3.3;;
80910;SDS011;70359;51.420;7.032;2024-01-25T00:40:11;6.3;;;3.3;;
80910;SDS011;70359;51.420;7.032;2024-01-25T00:42:34;7.5;;;3.3;;
80910;SDS011;70359;51.420;7.032;2024-01-25T00:45:01;7.5;;;3.3;;
80910;SDS011;70359;51.420;7.032;2024-01-25T00:47:22;11.3;;;3.3;;
80910;SDS011;70359;51.420;7.032;2024-01-25T00:49:47;11.3;;;3.3;;
80910;SDS011;70359;51.420;7.032;2024-01-25T00:52:12;8.1;;;3.5;;
80910;SDS011;70359;51.420;7.032;2024-01-25T00:54:37;8.1;;;3.5;;
80910;SDS011;70359;51.420;7.032;2024-01-25T00:57:02;7.1;;;3.2;;
80910;SDS011;70359;51.420;7.032;2024-01-25T00:59:27;7.1;;;3.2;;
80910;SDS011;70359;51.420;7.032;2024-01-25T01:01:52;5.3;;;3;;
80910;SDS011;70359;51.420;7.032;2024-01-25T01:04:17;5.3;;;3;;
80910;SDS011;70359;51.420;7.032;2024-01-25T01:06:46;6.3;;;2.6;;
80910;SDS011;70359;51.420;7.032;2024-01-25T01:09:06;6.3;;;2.6;;
80910;SDS011;70359;51.420;7.032;2024-01-25T01:11:31;10.1;;;2.7;;
80910;SDS011;70359;51.420;7.032;2024-01-25T01:13:56;10.1;;;2.7;;
80910;SDS011;70359;51.420;7.032;2024-01-25T01:16:21;13.8;;;3;;
80910;SDS011;70359;51.420;7.032;2024-01-25T01:18:46;13.8;;;3;;
80910;SDS011;70359;51.420;7.032;2024-01-25T01:21:11;8.1;;;2.8;;
80910;SDS011;70359;51.420;7.032;2024-01-25T01:23:36;8.1;;;2.8;;
80910;SDS011;70359;51.420;7.032;2024-01-25T01:26:01;10;;;3.4;;
80910;SDS011;70359;51.420;7.032;2024-01-25T01:28:30;10;;;3.4;;
80910;SDS011;70359;51.420;7.032;2024-01-25T01:30:51;6.3;;;3;;
80910;SDS011;70359;51.420;7.032;2024-01-25T01:33:16;6.3;;;3;;
80910;SDS011;70359;51.420;7.032;2024-01-25T01:35:45;10.2;;;3.8;;
80910;SDS011;70359;51.420;7.032;2024-01-25T01:38:06;10.2;;;3.8;;
80910;SDS011;70359;51.420;7.032;2024-01-25T01:40:31;4.3;;;2.8;;
80910;SDS011;70359;51.420;7.032;2024-01-25T01:43:02;4.3;;;2.8;;
80910;SDS011;70359;51.420;7.032;2024-01-25T01:45:21;5.5;;;2.7;;
80910;SDS011;70359;51.420;7.032;2024-01-25T01:47:50;5.5;;;2.7;;
80910;SDS011;70359;51.420;7.032;2024-01-25T01:50:12;8.8;;;3;;
80910;SDS011;70359;51.420;7.032;2024-01-25T01:52:40;8.8;;;3;;
80910;SDS011;70359;51.420;7.032;2024-01-25T01:55:01;8.8;;;3;;
80910;SDS011;70359;51.420;7.032;2024-01-25T01:57:26;7.5;;;3.5;;
80910;SDS011;70359;51.420;7.032;2024-01-25T01:59:51;7.5;;;3.5;;
80910;SDS011;70359;51.420;7.032;2024-01-25T02:02:16;5.6;;;2.9;;
80910;SDS011;70359;51.420;7.032;2024-01-25T02:04:43;5.6;;;2.9;;
80910;SDS011;70359;51.420;7.032;2024-01-25T02:07:06;7.1;;;3.1;;
80910;SDS011;70359;51.420;7.032;2024-01-25T02:09:31;7.1;;;3.1;;
80910;SDS011;70359;51.420;7.032;2024-01-25T02:12:03;8.6;;;3.4;;
80910;SDS011;70359;51.420;7.032;2024-01-25T02:14:21;8.6;;;3.4;;
80910;SDS011;70359;51.420;7.032;2024-01-25T02:16:50;5.8;;;3.1;;
80910;SDS011;70359;51.420;7.032;2024-01-25T02:19:11;5.8;;;3.1;;
80910;SDS011;70359;51.420;7.032;2024-01-25T02:21:36;7.6;;;3.3;;
80910;SDS011;70359;51.420;7.032;2024-01-25T02:24:06;7.6;;;3.3;;
80910;SDS011;70359;51.420;7.032;2024-01-25T02:26:26;6.8;;;3.1;;
80910;SDS011;70359;51.420;7.032;2024-01-25T02:28:55;6.8;;;3.1;;
80910;SDS011;70359;51.420;7.032;2024-01-25T02:31:20;7.5;;;3.2;;
80910;SDS011;70359;51.420;7.032;2024-01-25T02:33:41;7.5;;;3.2;;
80910;SDS011;70359;51.420;7.032;2024-01-25T02:36:07;8.9;;;2.9;;
80910;SDS011;70359;51.420;7.032;2024-01-25T02:38:31;8.9;;;2.9;;
80910;SDS011;70359;51.420;7.032;2024-01-25T02:40:56;4.6;;;2.7;;
80910;SDS011;70359;51.420;7.032;2024-01-25T02:43:21;4.6;;;2.7;;
80910;SDS011;70359;51.420;7.032;2024-01-25T02:45:46;6.7;;;2.7;;
80910;SDS011;70359;51.420;7.032;2024-01-25T02:48:11;6.7;;;2.7;;
80910;SDS011;70359;51.420;7.032;2024-01-25T02:50:40;10.2;;;2.9;;
80910;SDS011;70359;51.420;7.032;2024-01-25T02:53:06;10.2;;;2.9;;
80910;SDS011;70359;51.420;7.032;2024-01-25T02:55:26;5.9;;;2.6;;
80910;SDS011;70359;51.420;7.032;2024-01-25T02:57:51;5.9;;;2.6;;
80910;SDS011;70359;51.420;7.032;2024-01-25T03:00:17;8.4;;;3;;
80910;SDS011;70359;51.420;7.032;2024-01-25T03:02:41;8.4;;;3;;
80910;SDS011;70359;51.420;7.032;2024-01-25T03:05:11;8.4;;;3;;
80910;SDS011;70359;51.420;7.032;2024-01-25T03:07:35;6.7;;;2.8;;
80910;SDS011;70359;51.420;7.032;2024-01-25T03:09:56;6.7;;;2.8;;
80910;SDS011;70359;51.420;7.032;2024-01-25T03:12:25;4.9;;;3;;
80910;SDS011;70359;51.420;7.032;2024-01-25T03:14:47;4.9;;;3;;
80910;SDS011;70359;51.420;7.032;2024-01-25T03:17:11;6.9;;;3.1;;
80910;SDS011;70359;51.420;7.032;2024-01-25T03:19:40;6.9;;;3.1;;
80910;SDS011;70359;51.420;7.032;2024-01-25T03:22:02;7.2;;;2.8;;
80910;SDS011;70359;51.420;7.032;2024-01-25T03:24:26;7.2;;;2.8;;
80910;SDS011;70359;51.420;7.032;2024-01-25T03:26:55;15.4;;;3.2;;
80910;SDS011;70359;51.420;7.032;2024-01-25T03:29:17;15.4;;;3.2;;
80910;SDS011;70359;51.420;7.032;2024-01-25T03:31:42;8.1;;;2.8;;
80910;SDS011;70359;51.420;7.032;2024-01-25T03:34:07;8.1;;;2.8;;
80910;SDS011;70359;51.420;7.032;2024-01-25T03:36:32;5.4;;;2.7;;
80910;SDS011;70359;51.420;7.032;2024-01-25T03:38:57;5.4;;;2.7;;
80910;SDS011;70359;51.420;7.032;2024-01-25T03:41:22;5;;;2.9;;
80910;SDS011;70359;51.420;7.032;2024-01-25T03:43:50;5;;;2.9;;
80910;SDS011;70359;51.420;7.032;2024-01-25T03:46:12;4.1;;;2.5;;
80910;SDS011;70359;51.420;7.032;2024-01-25T03:48:40;4.1;;;2.5;;
80910;SDS011;70359;51.420;7.032;2024-01-25T03:51:02;10.1;;;2.9;;
80910;SDS011;70359;51.420;7.032;2024-01-25T03:53:27;10.1;;;2.9;;
80910;SDS011;70359;51.420;7.032;2024-01-25T03:55:52;9.5;;;2.8;;
80910;SDS011;70359;51.420;7.032;2024-01-25T03:58:17;9.5;;;2.8;;
80910;SDS011;70359;51.420;7.032;2024-01-25T04:00:42;8.4;;;3.4;;
80910;SDS011;70359;51.420;7.032;2024-01-25T04:03:11;8.4;;;3.4;;
80910;SDS011;70359;51.420;7.032;2024-01-25T04:05:32;21.2;;;3.2;;
80910;SDS011;70359;51.420;7.032;2024-01-25T04:07:57;21.2;;;3.2;;
80910;SDS011;70359;51.420;7.032;2024-01-25T04:10:22;6;;;2.8;;
80910;SDS011;70359;51.420;7.032;2024-01-25T04:12:47;6;;;2.8;;
80910;SDS011;70359;51.420;7.032;2024-01-25T04:15:12;6;;;2.8;;
80910;SDS011;70359;51.420;7.032;2024-01-25T04:17:37;5.4;;;2.4;;
80910;SDS011;70359;51.420;7.032;2024-01-25T04:20:02;5.4;;;2.4;;
80910;SDS011;70359;51.420;7.032;2024-01-25T04:22:31;5.8;;;2.7;;
80910;SDS011;70359;51.420;7.032;2024-01-25T04:24:52;5.8;;;2.7;;
80910;SDS011;70359;51.420;7.032;2024-01-25T04:27:17;5.4;;;2.7;;
80910;SDS011;70359;51.420;7.032;2024-01-25T04:29:42;5.4;;;2.7;;
80910;SDS011;70359;51.420;7.032;2024-01-25T04:32:07;4.2;;;2.5;;
80910;SDS011;70359;51.420;7.032;2024-01-25T04:34:36;4.2;;;2.5;;
80910;SDS011;70359;51.420;7.032;2024-01-25T04:36:57;6.4;;;2.5;;
80910;SDS011;70359;51.420;7.032;2024-01-25T04:39:22;6.4;;;2.5;;
80910;SDS011;70359;51.420;7.032;2024-01-25T04:41:47;4.7;;;2.4;;
80910;SDS011;70359;51.420;7.032;2024-01-25T04:44:12;4.7;;;2.4;;
80910;SDS011;70359;51.420;7.032;2024-01-25T04:46:37;6.4;;;3.1;;
80910;SDS011;70359;51.420;7.032;2024-01-25T04:49:02;6.4;;;3.1;;
80910;SDS011;70359;51.420;7.032;2024-01-25T04:51:27;8.4;;;3;;
80910;SDS011;70359;51.420;7.032;2024-01-25T04:53:52;8.4;;;3;;
80910;SDS011;70359;51.420;7.032;2024-01-25T04:56:17;8.3;;;2.5;;
80910;SDS011;70359;51.420;7.032;2024-01-25T04:58:42;8.3;;;2.5;;
80910;SDS011;70359;51.420;7.032;2024-01-25T05:01:11;11;;;2.9;;
80910;SDS011;70359;51.420;7.032;2024-01-25T05:03:32;11;;;2.9;;
80910;SDS011;70359;51.420;7.032;2024-01-25T05:05:57;7.3;;;2.9;;
80910;SDS011;70359;51.420;7.032;2024-01-25T05:08:22;7.3;;;2.9;;
80910;SDS011;70359;51.420;7.032;2024-01-25T05:10:51;4.4;;;2.6;;
80910;SDS011;70359;51.420;7.032;2024-01-25T05:13:12;4.4;;;2.6;;
80910;SDS011;70359;51.420;7.032;2024-01-25T05:15:37;10.6;;;3.4;;
80910;SDS011;70359;51.420;7.032;2024-01-25T05:18:02;10.6;;;3.4;;
80910;SDS011;70359;51.420;7.032;2024-01-25T05:20:32;11.8;;;3.4;;
80910;SDS011;70359;51.420;7.032;2024-01-25T05:22:56;11.8;;;3.4;;
80910;SDS011;70359;51.420;7.032;2024-01-25T05:25:17;9.5;;;3.3;;
80910;SDS011;70359;51.420;7.032;2024-01-25T05:27:46;9.5;;;3.3;;
80910;SDS011;70359;51.420;7.032;2024-01-25T05:30:07;9.5;;;3.3;;
80910;SDS011;70359;51.420;7.032;2024-01-25T05:32:32;9.3;;;3;;
80910;SDS011;70359;51.420;7.032;2024-01-25T05:34:57;9.3;;;3;;
80910;SDS011;70359;51.420;7.032;2024-01-25T05:37:22;7.1;;;3.1;;
80910;SDS011;70359;51.420;7.032;2024-01-25T05:39:47;7.1;;;3.1;;
80910;SDS011;70359;51.420;7.032;2024-01-25T05:42:12;10.8;;;3.1;;
80910;SDS011;70359;51.420;7.032;2024-01-25T05:44:37;10.8;;;3.1;;
80910;SDS011;70359;51.420;7.032;2024-01-25T05:47:02;9.2;;;3.2;;
80910;SDS011;70359;51.420;7.032;2024-01-25T05:49:27;9.2;;;3.2;;
80910;SDS011;70359;51.420;7.032;2024-01-25T05:51:52;5.2;;;2.8;;
80910;SDS011;70359;51.420;7.032;2024-01-25T05:54:17;5.2;;;2.8;;
80910;SDS011;70359;51.420;7.032;2024-01-25T05:56:42;11.2;;;3.8;;
80910;SDS011;70359;51.420;7.032;2024-01-25T05:59:07;11.2;;;3.8;;
80910;SDS011;70359;51.420;7.032;2024-01-25T06:01:32;7.1;;;3.2;;
80910;SDS011;70359;51.420;7.032;2024-01-25T06:03:57;7.1;;;3.2;;
80910;SDS011;70359;51.420;7.032;2024-01-25T06:06:22;18.9;;;3.6;;
80910;SDS011;70359;51.420;7.032;2024-01-25T06:08:47;18.9;;;3.6;;
80910;SDS011;70359;51.420;7.032;2024-01-25T06:11:12;8.2;;;3.5;;
80910;SDS011;70359;51.420;7.032;2024-01-25T06:13:41;8.2;;;3.5;;
80910;SDS011;70359;51.420;7.032;2024-01-25T06:16:02;6;;;3.3;;
80910;SDS011;70359;51.420;7.032;2024-01-25T06:18:31;6;;;3.3;;
80910;SDS011;70359;51.420;7.032;2024-01-25T06:20:52;5.4;;;2.7;;
80910;SDS011;70359;51.420;7.032;2024-01-25T06:23:17;5.4;;;2.7;;
80910;SDS011;70359;51.420;7.032;2024-01-25T06:25:42;8.4;;;3.5;;
80910;SDS011;70359;51.420;7.032;2024-01-25T06:28:11;8.4;;;3.5;;
80910;SDS011;70359;51.420;7.032;2024-01-25T06:30:32;5.4;;;2.9;;
80910;SDS011;70359;51.420;7.032;2024-01-25T06:32:57;5.4;;;2.9;;
80910;SDS011;70359;51.420;7.032;2024-01-25T06:35:22;14.2;;;3.5;;
80910;SDS011;70359;51.420;7.032;2024-01-25T06:37:47;14.2;;;3.5;;
80910;SDS011;70359;51.420;7.032;2024-01-25T06:40:16;14.2;;;3.5;;
80910;SDS011;70359;51.420;7.032;2024-01-25T06:42:37;12.3;;;3.5;;
80910;SDS011;70359;51.420;7.032;2024-01-25T06:45:02;12.3;;;3.5;;
80910;SDS011;70359;51.420;7.032;2024-01-25T06:47:31;7;;;3.3;;
80910;SDS011;70359;51.420;7.032;2024-01-25T06:49:52;7;;;3.3;;
80910;SDS011;70359;51.420;7.032;2024-01-25T06:52:17;15.3;;;4;;
80910;SDS011;70359;51.420;7.032;2024-01-25T06:54:42;15.3;;;4;;
80910;SDS011;70359;51.420;7.032;2024-01-25T06:57:07;6.3;;;3.2;;
80910;SDS011;70359;51.420;7.032;2024-01-25T06:59:32;6.3;;;3.2;;
80910;SDS011;70359;51.420;7.032;2024-01-25T07:01:57;5.5;;;3;;
80910;SDS011;70359;51.420;7.032;2024-01-25T07:04:22;5.5;;;3;;
80910;SDS011;70359;51.420;7.032;2024-01-25T07:06:47;6.8;;;3.4;;
80910;SDS011;70359;51.420;7.032;2024-01-25T07:09:12;6.8;;;3.4;;
80910;SDS011;70359;51.420;7.032;2024-01-25T07:11:41;7.5;;;3.7;;
80910;SDS011;70359;51.420;7.032;2024-01-25T07:14:02;7.5;;;3.7;;
80910;SDS011;70359;51.420;7.032;2024-01-25T07:16:27;8.3;;;3.3;;
80910;SDS011;70359;51.420;7.032;2024-01-25T07:18:56;8.3;;;3.3;;
80910;SDS011;70359;51.420;7.032;2024-01-25T07:21:21;3.7;;;2.7;;
80910;SDS011;70359;51.420;7.032;2024-01-25T07:23:46;3.7;;;2.7;;
80910;SDS011;70359;51.420;7.032;2024-01-25T07:26:07;8.8;;;3.6;;
80910;SDS011;70359;51.420;7.032;2024-01-25T07:28:32;8.8;;;3.6;;
80910;SDS011;70359;51.420;7.032;2024-01-25T07:31:01;6.8;;;3.5;;
80910;SDS011;70359;51.420;7.032;2024-01-25T07:33:22;6.8;;;3.5;;
80910;SDS011;70359;51.420;7.032;2024-01-25T07:35:51;6.4;;;3.4;;
80910;SDS011;70359;51.420;7.032;2024-01-25T07:38:12;6.4;;;3.4;;
80910;SDS011;70359;51.420;7.032;2024-01-25T07:40:37;7.5;;;3.7;;
80910;SDS011;70359;51.420;7.032;2024-01-25T07:43:02;7.5;;;3.7;;
80910;SDS011;70359;51.420;7.032;2024-01-25T07:45:27;7.4;;;3.8;;
80910;SDS011;70359;51.420;7.032;2024-01-25T07:47:52;7.4;;;3.8;;
80910;SDS011;70359;51.420;7.032;2024-01-25T07:50:24;7.3;;;3.2;;
80910;SDS011;70359;51.420;7.032;2024-01-25T07:52:42;7.3;;;3.2;;
80910;SDS011;70359;51.420;7.032;2024-01-25T07:55:08;7.3;;;3.2;;
80910;SDS011;70359;51.420;7.032;2024-01-25T07:57:32;8.6;;;3.3;;
80910;SDS011;70359;51.420;7.032;2024-01-25T07:59:57;8.6;;;3.3;;
80910;SDS011;70359;51.420;7.032;2024-01-25T08:02:22;6.9;;;3;;
80910;SDS011;70359;51.420;7.032;2024-01-25T08:04:47;6.9;;;3;;
80910;SDS011;70359;51.420;7.032;2024-01-25T08:07:12;7.2;;;3.3;;
80910;SDS011;70359;51.420;7.032;2024-01-25T08:09:37;7.2;;;3.3;;
80910;SDS011;70359;51.420;7.032;2024-01-25T08:12:02;7;;;3.2;;
80910;SDS011;70359;51.420;7.032;2024-01-25T08:14:27;7;;;3.2;;
80910;SDS011;70359;51.420;7.032;2024-01-25T08:16:52;9.2;;;3.3;;
80910;SDS011;70359;51.420;7.032;2024-01-25T08:19:17;9.2;;;3.3;;
80910;SDS011;70359;51.420;7.032;2024-01-25T08:21:42;6.6;;;3.3;;
80910;SDS011;70359;51.420;7.032;2024-01-25T08:24:07;6.6;;;3.3;;
80910;SDS011;70359;51.420;7.032;2024-01-25T08:26:32;10.8;;;3.7;;
80910;SDS011;70359;51.420;7.032;2024-01-25T08:28:57;10.8;;;3.7;;
80910;SDS011;70359;51.420;7.032;2024-01-25T08:31:22;8;;;4.2;;
80910;SDS011;70359;51.420;7.032;2024-01-25T08:33:47;8;;;4.2;;
80910;SDS011;70359;51.420;7.032;2024-01-25T08:36:12;8;;;3.5;;
80910;SDS011;70359;51.420;7.032;2024-01-25T08:38:41;8;;;3.5;;
80910;SDS011;70359;51.420;7.032;2024-01-25T08:41:02;13.3;;;4.5;;
80910;SDS011;70359;51.420;7.032;2024-01-25T08:43:27;13.3;;;4.5;;
80910;SDS011;70359;51.420;7.032;2024-01-25T08:45:52;9.6;;;4.8;;
80910;SDS011;70359;51.420;7.032;2024-01-25T08:48:17;9.6;;;4.8;;
80910;SDS011;70359;51.420;7.032;2024-01-25T08:50:42;12.4;;;5.4;;
80910;SDS011;70359;51.420;7.032;2024-01-25T08:53:07;12.4;;;5.4;;
80910;SDS011;70359;51.420;7.032;2024-01-25T08:55:32;10.3;;;5.3;;
80910;SDS011;70359;51.420;7.032;2024-01-25T08:57:57;10.3;;;5.3;;
80910;SDS011;70359;51.420;7.032;2024-01-25T09:00:26;13.3;;;6.8;;
80910;SDS011;70359;51.420;7.032;2024-01-25T09:02:47;13.3;;;6.8;;
80910;SDS011;70359;51.420;7.032;2024-01-25T09:05:16;13.3;;;6.8;;
80910;SDS011;70359;51.420;7.032;2024-01-25T09:07:37;10.6;;;6;;
80910;SDS011;70359;51.420;7.032;2024-01-25T09:10:03;10.6;;;6;;
80910;SDS011;70359;51.420;7.032;2024-01-25T09:12:28;20.3;;;7.1;;
80910;SDS011;70359;51.420;7.032;2024-01-25T09:14:52;20.3;;;7.1;;
80910;SDS011;70359;51.420;7.032;2024-01-25T09:17:17;10.9;;;7.2;;
80910;SDS011;70359;51.420;7.032;2024-01-25T09:19:42;10.9;;;7.2;;
80910;SDS011;70359;51.420;7.032;2024-01-25T09:22:07;12;;;7;;
80910;SDS011;70359;51.420;7.032;2024-01-25T09:24:32;12;;;7;;
80910;SDS011;70359;51.420;7.032;2024-01-25T09:26:57;10.8;;;7.6;;
80910;SDS011;70359;51.420;7.032;2024-01-25T09:29:22;10.8;;;7.6;;
80910;SDS011;70359;51.420;7.032;2024-01-25T09:31:47;13.3;;;7.9;;
80910;SDS011;70359;51.420;7.032;2024-01-25T09:34:12;13.3;;;7.9;;
80910;SDS011;70359;51.420;7.032;2024-01-25T09:36:37;13;;;7.7;;
80910;SDS011;70359;51.420;7.032;2024-01-25T09:39:02;13;;;7.7;;
80910;SDS011;70359;51.420;7.032;2024-01-25T09:41:31;11.1;;;7.9;;
80910;SDS011;70359;51.420;7.032;2024-01-25T09:43:52;11.1;;;7.9;;
80910;SDS011;70359;51.420;7.032;2024-01-25T09:46:17;13.6;;;8.3;;
80910;SDS011;70359;51.420;7.032;2024-01-25T09:48:42;13.6;;;8.3;;
80910;SDS011;70359;51.420;7.032;2024-01-25T09:51:07;13.6;;;8.6;;
80910;SDS011;70359;51.420;7.032;2024-01-25T09:53:36;13.6;;;8.6;;
80910;SDS011;70359;51.420;7.032;2024-01-25T09:56:03;15.7;;;8.4;;
80910;SDS011;70359;51.420;7.032;2024-01-25T09:58:23;15.7;;;8.4;;
80910;SDS011;70359;51.420;7.032;2024-01-25T10:00:47;16;;;8.5;;
80910;SDS011;70359;51.420;7.032;2024-01-25T10:03:13;16;;;8.5;;
80910;SDS011;70359;51.420;7.032;2024-01-25T10:05:37;18.8;;;8.4;;
80910;SDS011;70359;51.420;7.032;2024-01-25T10:08:03;18.8;;;8.4;;
80910;SDS011;70359;51.420;7.032;2024-01-25T10:10:31;13.8;;;8.3;;
80910;SDS011;70359;51.420;7.032;2024-01-25T10:12:59;13.8;;;8.3;;
80910;SDS011;70359;51.420;7.032;2024-01-25T10:15:17;13.8;;;8.3;;
80910;SDS011;70359;51.420;7.032;2024-01-25T10:17:47;10.3;;;7;;
80910;SDS011;70359;51.420;7.032;2024-01-25T10:20:09;10.3;;;7;;
80910;SDS011;70359;51.420;7.032;2024-01-25T10:22:32;12.2;;;7;;
80910;SDS011;70359;51.420;7.032;2024-01-25T10:25:01;12.2;;;7;;
80910;SDS011;70359;51.420;7.032;2024-01-25T10:27:22;7.7;;;6.1;;
80910;SDS011;70359;51.420;7.032;2024-01-25T10:29:52;7.7;;;6.1;;
80910;SDS011;70359;51.420;7.032;2024-01-25T10:32:13;17.1;;;6.2;;
80910;SDS011;70359;51.420;7.032;2024-01-25T10:34:38;17.1;;;6.2;;
80910;SDS011;70359;51.420;7.032;2024-01-25T10:37:03;10.3;;;5.3;;
80910;SDS011;70359;51.420;7.032;2024-01-25T10:39:33;10.3;;;5.3;;
80910;SDS011;70359;51.420;7.032;2024-01-25T10:41:57;8.5;;;5.3;;
80910;SDS011;70359;51.420;7.032;2024-01-25T10:44:17;8.5;;;5.3;;
80910;SDS011;70359;51.420;7.032;2024-01-25T10:46:43;9.2;;;4.9;;
80910;SDS011;70359;51.420;7.032;2024-01-25T10:49:11;9.2;;;4.9;;
80910;SDS011;70359;51.420;7.032;2024-01-25T10:51:33;8.8;;;5;;
80910;SDS011;70359;51.420;7.032;2024-01-25T10:54:02;8.8;;;5;;
80910;SDS011;70359;51.420;7.032;2024-01-25T10:56:23;9.7;;;4.9;;
80910;SDS011;70359;51.420;7.032;2024-01-25T10:58:48;9.7;;;4.9;;
80910;SDS011;70359;51.420;7.032;2024-01-25T11:01:13;21.3;;;5.3;;
80910;SDS011;70359;51.420;7.032;2024-01-25T11:03:38;21.3;;;5.3;;
80910;SDS011;70359;51.420;7.032;2024-01-25T11:06:12;10.2;;;4.7;;
80910;SDS011;70359;51.420;7.032;2024-01-25T11:08:28;10.2;;;4.7;;
80910;SDS011;70359;51.420;7.032;2024-01-25T11:10:53;9.1;;;4.3;;
80910;SDS011;70359;51.420;7.032;2024-01-25T11:13:23;9.1;;;4.3;;
80910;SDS011;70359;51.420;7.032;2024-01-25T11:15:43;11.5;;;4.6;;
80910;SDS011;70359;51.420;7.032;2024-01-25T11:18:12;11.5;;;4.6;;
80910;SDS011;70359;51.420;7.032;2024-01-25T11:20:37;14.2;;;4.5;;
80910;SDS011;70359;51.420;7.032;2024-01-25T11:23:02;14.2;;;4.5;;
80910;SDS011;70359;51.420;7.032;2024-01-25T11:25:23;7.4;;;4.1;;
80910;SDS011;70359;51.420;7.032;2024-01-25T11:27:48;7.4;;;4.1;;
80910;SDS011;70359;51.420;7.032;2024-01-25T11:30:13;7.4;;;4.1;;
80910;SDS011;70359;51.420;7.032;2024-01-25T11:32:38;11.2;;;4.4;;
80910;SDS011;70359;51.420;7.032;2024-01-25T11:35:03;11.2;;;4.4;;
80910;SDS011;70359;51.420;7.032;2024-01-25T11:37:28;6.3;;;3.5;;
80910;SDS011;70359;51.420;7.032;2024-01-25T11:39:57;6.3;;;3.5;;
80910;SDS011;70359;51.420;7.032;2024-01-25T11:42:18;9.7;;;3.6;;
80910;SDS011;70359;51.420;7.032;2024-01-25T11:47:08;7.5;;;4.2;;
80910;SDS011;70359;51.420;7.032;2024-01-25T11:49:34;7.5;;;4.2;;
80910;SDS011;70359;51.420;7.032;2024-01-25T11:51:58;6;;;3.6;;
80910;SDS011;70359;51.420;7.032;2024-01-25T11:54:27;6;;;3.6;;
80910;SDS011;70359;51.420;7.032;2024-01-25T11:56:52;12.3;;;4.3;;
80910;SDS011;70359;51.420;7.032;2024-01-25T11:59:13;12.3;;;4.3;;
80910;SDS011;70359;51.420;7.032;2024-01-25T12:01:39;9.1;;;4.3;;
80910;SDS011;70359;51.420;7.032;2024-01-25T12:04:03;9.1;;;4.3;;
80910;SDS011;70359;51.420;7.032;2024-01-25T12:06:28;7.5;;;3.5;;
80910;SDS011;70359;51.420;7.032;2024-01-25T12:08:53;7.5;;;3.5;;
80910;SDS011;70359;51.420;7.032;2024-01-25T12:11:18;6.5;;;3.7;;
80910;SDS011;70359;51.420;7.032;2024-01-25T12:13:43;6.5;;;3.7;;
80910;SDS011;70359;51.420;7.032;2024-01-25T12:16:08;7.1;;;3.4;;
80910;SDS011;70359;51.420;7.032;2024-01-25T12:18:33;7.1;;;3.4;;
80910;SDS011;70359;51.420;7.032;2024-01-25T12:20:58;11.7;;;4.5;;
80910;SDS011;70359;51.420;7.032;2024-01-25T12:23:29;11.7;;;4.5;;
80910;SDS011;70359;51.420;7.032;2024-01-25T12:25:48;8.5;;;4.3;;
80910;SDS011;70359;51.420;7.032;2024-01-25T12:28:13;8.5;;;4.3;;
80910;SDS011;70359;51.420;7.032;2024-01-25T12:30:38;10.3;;;3.9;;
80910;SDS011;70359;51.420;7.032;2024-01-25T12:33:03;10.3;;;3.9;;
80910;SDS011;70359;51.420;7.032;2024-01-25T12:35:28;9.7;;;3.8;;
80910;SDS011;70359;51.420;7.032;2024-01-25T12:37:53;9.7;;;3.8;;
80910;SDS011;70359;51.420;7.032;2024-01-25T12:40:22;9.7;;;3.8;;
80910;SDS011;70359;51.420;7.032;2024-01-25T12:42:47;7.1;;;4;;
80910;SDS011;70359;51.420;7.032;2024-01-25T12:45:08;7.1;;;4;;
80910;SDS011;70359;51.420;7.032;2024-01-25T12:47:33;13.1;;;4.6;;
80910;SDS011;70359;51.420;7.032;2024-01-25T12:50:02;13.1;;;4.6;;
80910;SDS011;70359;51.420;7.032;2024-01-25T12:52:23;7.9;;;4.2;;
80910;SDS011;70359;51.420;7.032;2024-01-25T12:54:48;7.9;;;4.2;;
80910;SDS011;70359;51.420;7.032;2024-01-25T12:57:13;9.7;;;4.3;;
80910;SDS011;70359;51.420;7.032;2024-01-25T12:59:38;9.7;;;4.3;;
80910;SDS011;70359;51.420;7.032;2024-01-25T13:02:03;7.5;;;4.2;;
80910;SDS011;70359;51.420;7.032;2024-01-25T13:04:28;7.5;;;4.2;;
80910;SDS011;70359;51.420;7.032;2024-01-25T13:06:54;7.3;;;4.5;;
80910;SDS011;70359;51.420;7.032;2024-01-25T13:09:18;7.3;;;4.5;;
80910;SDS011;70359;51.420;7.032;2024-01-25T13:11:43;7.4;;;3.9;;
80910;SDS011;70359;51.420;7.032;2024-01-25T13:14:08;7.4;;;3.9;;
80910;SDS011;70359;51.420;7.032;2024-01-25T13:16:33;10.8;;;4.9;;
80910;SDS011;70359;51.420;7.032;2024-01-25T13:18:58;10.8;;;4.9;;
80910;SDS011;70359;51.420;7.032;2024-01-25T13:21:23;13.7;;;4.5;;
80910;SDS011;70359;51.420;7.032;2024-01-25T13:23:48;13.7;;;4.5;;
80910;SDS011;70359;51.420;7.032;2024-01-25T13:26:13;7.6;;;5.1;;
80910;SDS011;70359;51.420;7.032;2024-01-25T13:28:38;7.6;;;5.1;;
80910;SDS011;70359;51.420;7.032;2024-01-25T13:31:03;18.9;;;5.5;;
80910;SDS011;70359;51.420;7.032;2024-01-25T13:33:28;18.9;;;5.5;;
80910;SDS011;70359;51.420;7.032;2024-01-25T13:35:57;10.6;;;5.6;;
80910;SDS011;70359;51.420;7.032;2024-01-25T13:38:18;10.6;;;5.6;;
80910;SDS011;70359;51.420;7.032;2024-01-25T13:40:43;9.2;;;5.3;;
80910;SDS011;70359;51.420;7.032;2024-01-25T13:43:08;9.2;;;5.3;;
80910;SDS011;70359;51.420;7.032;2024-01-25T13:45:33;11.3;;;5.8;;
80910;SDS011;70359;51.420;7.032;2024-01-25T13:47:58;11.3;;;5.8;;
80910;SDS011;70359;51.420;7.032;2024-01-25T13:50:23;11.3;;;5.8;;
80910;SDS011;70359;51.420;7.032;2024-01-25T13:52:48;10.8;;;5.3;;
80910;SDS011;70359;51.420;7.032;2024-01-25T13:55:13;10.8;;;5.3;;
80910;SDS011;70359;51.420;7.032;2024-01-25T13:57:38;8.6;;;5.5;;
80910;SDS011;70359;51.420;7.032;2024-01-25T14:00:03;8.6;;;5.5;;
80910;SDS011;70359;51.420;7.032;2024-01-25T14:02:28;14.9;;;5.8;;
80910;SDS011;70359;51.420;7.032;2024-01-25T14:04:53;14.9;;;5.8;;
80910;SDS011;70359;51.420;7.032;2024-01-25T14:07:18;10.9;;;5.5;;
80910;SDS011;70359;51.420;7.032;2024-01-25T14:09:43;10.9;;;5.5;;
80910;SDS011;70359;51.420;7.032;2024-01-25T14:12:08;9.9;;;5.5;;
80910;SDS011;70359;51.420;7.032;2024-01-25T14:14:33;9.9;;;5.5;;
80910;SDS011;70359;51.420;7.032;2024-01-25T14:16:58;19.3;;;6;;
80910;SDS011;70359;51.420;7.032;2024-01-25T14:19:23;19.3;;;6;;
80910;SDS011;70359;51.420;7.032;2024-01-25T14:21:48;13.7;;;5.8;;
80910;SDS011;70359;51.420;7.032;2024-01-25T14:24:13;13.7;;;5.8;;
80910;SDS011;70359;51.420;7.032;2024-01-25T14:26:38;10.2;;;5.6;;
80910;SDS011;70359;51.420;7.032;2024-01-25T14:29:03;10.2;;;5.6;;
80910;SDS011;70359;51.420;7.032;2024-01-25T14:31:28;15.8;;;5.8;;
80910;SDS011;70359;51.420;7.032;2024-01-25T14:33:53;15.8;;;5.8;;
80910;SDS011;70359;51.420;7.032;2024-01-25T14:36:18;9.5;;;5.5;;
80910;SDS011;70359;51.420;7.032;2024-01-25T14:38:43;9.5;;;5.5;;
80910;SDS011;70359;51.420;7.032;2024-01-25T14:41:11;20.6;;;5.7;;
80910;SDS011;70359;51.420;7.032;2024-01-25T14:43:33;20.6;;;5.7;;
80910;SDS011;70359;51.420;7.032;2024-01-25T14:46:02;9.2;;;5.4;;
80910;SDS011;70359;51.420;7.032;2024-01-25T14:48:23;9.2;;;5.4;;
80910;SDS011;70359;51.420;7.032;2024-01-25T14:50:52;11.3;;;6.1;;
80910;SDS011;70359;51.420;7.032;2024-01-25T14:53:17;11.3;;;6.1;;
80910;SDS011;70359;51.420;7.032;2024-01-25T14:55:42;10.5;;;5.7;;
80910;SDS011;70359;51.420;7.032;2024-01-25T14:58:03;10.5;;;5.7;;
80910;SDS011;70359;51.420;7.032;2024-01-25T15:00:42;7.6;;;4.5;;
80910;SDS011;70359;51.420;7.032;2024-01-25T15:02:53;7.6;;;4.5;;